createdAt,value
2019-03-26T00:00:45.427Z,0
2019-03-26T00:01:45.332Z,0
2019-03-26T00:02:45.492Z,0
2019-03-26T00:03:45.434Z,0
2019-03-26T00:04:45.365Z,0
2019-03-26T00:05:45.433Z,0
2019-03-26T00:06:45.444Z,0
2019-03-26T00:07:45.371Z,0
2019-03-26T00:08:45.436Z,0
2019-03-26T00:09:45.372Z,0
2019-03-26T00:10:45.403Z,0
2019-03-26T00:11:45.391Z,0
2019-03-26T00:12:45.455Z,0
2019-03-26T00:13:45.376Z,0
2019-03-26T00:14:45.455Z,0
2019-03-26T00:15:45.449Z,0
2019-03-26T00:16:45.512Z,0
2019-03-26T00:17:45.450Z,0
2019-03-26T00:18:45.393Z,0
2019-03-26T00:19:45.395Z,0
2019-03-26T00:20:45.396Z,0
2019-03-26T00:21:45.439Z,0
2019-03-26T00:22:45.442Z,0
2019-03-26T00:23:45.447Z,0
2019-03-26T00:24:45.346Z,0
2019-03-26T00:25:45.442Z,0
2019-03-26T00:26:45.372Z,0
2019-03-26T00:27:45.476Z,0
2019-03-26T00:28:45.440Z,0
2019-03-26T00:29:45.363Z,0
2019-03-26T00:30:45.387Z,0
2019-03-26T00:31:45.450Z,0
2019-03-26T00:32:45.463Z,0
2019-03-26T00:33:45.381Z,0
2019-03-26T00:34:45.454Z,0
2019-03-26T00:35:45.453Z,0
2019-03-26T00:36:45.384Z,0
2019-03-26T00:37:45.392Z,0
2019-03-26T00:38:45.559Z,0
2019-03-26T00:39:45.390Z,0
2019-03-26T00:40:45.588Z,0
2019-03-26T00:41:45.413Z,0
2019-03-26T00:42:45.494Z,0
2019-03-26T00:43:45.437Z,0
2019-03-26T00:44:45.398Z,0
2019-03-26T00:45:45.471Z,0
2019-03-26T00:46:45.473Z,0
2019-03-26T00:47:45.415Z,0
2019-03-26T00:48:45.438Z,0
2019-03-26T00:49:45.474Z,0
2019-03-26T00:50:45.423Z,0
2019-03-26T00:51:45.423Z,0
2019-03-26T00:52:45.482Z,0
2019-03-26T00:53:45.438Z,0
2019-03-26T00:54:45.490Z,0
2019-03-26T00:55:45.492Z,0
2019-03-26T00:56:45.432Z,0
2019-03-26T00:57:45.410Z,0
2019-03-26T00:58:45.434Z,0
2019-03-26T00:59:45.434Z,0
2019-03-26T01:00:45.458Z,0
2019-03-26T01:01:45.354Z,0
2019-03-26T01:02:45.400Z,0
2019-03-26T01:03:45.450Z,0
2019-03-26T01:04:45.464Z,0
2019-03-26T01:05:45.444Z,0
2019-03-26T01:06:45.357Z,0
2019-03-26T01:07:45.462Z,0
2019-03-26T01:08:45.403Z,0
2019-03-26T01:09:45.439Z,0
2019-03-26T01:10:45.410Z,0
2019-03-26T01:11:45.481Z,0
2019-03-26T01:12:45.427Z,0
2019-03-26T01:13:45.484Z,0
2019-03-26T01:14:45.416Z,0
2019-03-26T01:15:45.425Z,0
2019-03-26T01:16:45.488Z,0
2019-03-26T01:17:45.414Z,0
2019-03-26T01:18:45.420Z,0
2019-03-26T01:19:45.485Z,0
2019-03-26T01:20:45.377Z,0
2019-03-26T01:21:45.507Z,0
2019-03-26T01:22:45.500Z,0
2019-03-26T01:23:45.522Z,0
2019-03-26T01:24:45.462Z,0
2019-03-26T01:25:45.516Z,0
2019-03-26T01:26:45.509Z,0
2019-03-26T01:27:45.507Z,0
2019-03-26T01:28:45.512Z,0
2019-03-26T01:29:45.471Z,0
2019-03-26T01:30:45.429Z,0
2019-03-26T01:31:45.495Z,0
2019-03-26T01:32:45.439Z,0
2019-03-26T01:33:45.429Z,0
2019-03-26T01:34:46.444Z,0
2019-03-26T01:35:45.429Z,0
2019-03-26T01:36:45.431Z,0
2019-03-26T01:37:45.501Z,0
2019-03-26T01:38:45.497Z,0
2019-03-26T01:39:45.433Z,0
2019-03-26T01:40:45.438Z,0
2019-03-26T01:41:45.473Z,0
2019-03-26T01:42:45.508Z,0
2019-03-26T01:43:45.519Z,0
2019-03-26T01:44:45.402Z,0
2019-03-26T01:45:45.442Z,0
2019-03-26T01:46:45.391Z,0
2019-03-26T01:47:45.531Z,0
2019-03-26T01:48:45.531Z,0
2019-03-26T01:49:45.530Z,0
2019-03-26T01:50:45.491Z,0
2019-03-26T01:51:45.505Z,0
2019-03-26T01:52:45.455Z,0
2019-03-26T01:53:45.443Z,0
2019-03-26T01:54:45.508Z,0
2019-03-26T01:55:45.507Z,0
2019-03-26T01:56:45.416Z,0
2019-03-26T01:57:45.497Z,0
2019-03-26T01:58:45.496Z,0
2019-03-26T01:59:45.511Z,0
2019-03-26T02:00:45.381Z,0
2019-03-26T02:01:45.446Z,0
2019-03-26T02:02:45.521Z,0
2019-03-26T02:03:45.447Z,0
2019-03-26T02:04:58.849Z,0
2019-03-26T02:05:45.456Z,0
2019-03-26T02:06:45.450Z,0
2019-03-26T02:07:45.520Z,0
2019-03-26T02:08:45.457Z,0
2019-03-26T02:09:45.522Z,0
2019-03-26T02:10:45.457Z,0
2019-03-26T02:11:45.530Z,0
2019-03-26T02:12:48.362Z,0
2019-03-26T02:13:45.474Z,0
2019-03-26T02:14:45.462Z,0
2019-03-26T02:15:45.544Z,0
2019-03-26T02:16:45.462Z,0
2019-03-26T02:17:45.425Z,0
2019-03-26T02:18:45.542Z,0
2019-03-26T02:19:45.482Z,0
2019-03-26T02:20:45.480Z,0
2019-03-26T02:21:45.529Z,0
2019-03-26T02:22:45.479Z,0
2019-03-26T02:23:45.468Z,0
2019-03-26T02:24:45.482Z,0
2019-03-26T02:25:45.485Z,0
2019-03-26T02:26:45.551Z,0
2019-03-26T02:27:45.487Z,0
2019-03-26T02:28:45.488Z,0
2019-03-26T02:29:45.573Z,0
2019-03-26T02:30:45.562Z,0
2019-03-26T02:31:45.548Z,0
2019-03-26T02:32:45.502Z,0
2019-03-26T02:33:45.467Z,0
2019-03-26T02:34:45.539Z,0
2019-03-26T02:35:45.474Z,0
2019-03-26T02:36:45.552Z,0
2019-03-26T02:37:45.485Z,0
2019-03-26T02:38:45.543Z,0
2019-03-26T02:39:45.488Z,0
2019-03-26T02:40:45.497Z,0
2019-03-26T02:41:45.574Z,0
2019-03-26T02:42:45.568Z,0
2019-03-26T02:43:45.562Z,0
2019-03-26T02:44:45.483Z,0
2019-03-26T02:45:45.497Z,0
2019-03-26T02:46:45.503Z,0
2019-03-26T02:47:45.451Z,0
2019-03-26T02:48:45.505Z,0
2019-03-26T02:49:45.500Z,0
2019-03-26T02:50:45.514Z,0
2019-03-26T02:51:45.561Z,0
2019-03-26T02:52:45.541Z,0
2019-03-26T02:53:45.519Z,0
2019-03-26T02:54:45.564Z,0
2019-03-26T02:55:45.535Z,0
2019-03-26T02:56:45.451Z,0
2019-03-26T02:57:45.574Z,0
2019-03-26T02:58:45.511Z,0
2019-03-26T02:59:45.575Z,0
2019-03-26T03:00:45.579Z,0
2019-03-26T03:01:45.569Z,0
2019-03-26T03:02:45.503Z,0
2019-03-26T03:03:45.473Z,0
2019-03-26T03:04:45.460Z,0
2019-03-26T03:05:45.493Z,0
2019-03-26T03:06:45.468Z,0
2019-03-26T03:07:45.492Z,0
2019-03-26T03:08:45.555Z,0
2019-03-26T03:09:45.489Z,0
2019-03-26T03:10:45.468Z,0
2019-03-26T03:11:45.563Z,0
2019-03-26T03:12:45.501Z,0
2019-03-26T03:13:45.567Z,0
2019-03-26T03:14:45.500Z,0
2019-03-26T03:15:45.571Z,0
2019-03-26T03:16:45.572Z,0
2019-03-26T03:17:45.502Z,0
2019-03-26T03:18:45.572Z,0
2019-03-26T03:19:45.571Z,0
2019-03-26T03:20:45.507Z,0
2019-03-26T03:21:45.589Z,0
2019-03-26T03:22:45.706Z,0
2019-03-26T03:23:45.586Z,0
2019-03-26T03:24:45.584Z,0
2019-03-26T03:25:45.595Z,0
2019-03-26T03:26:45.527Z,0
2019-03-26T03:27:45.528Z,0
2019-03-26T03:28:45.590Z,0
2019-03-26T03:29:45.519Z,0
2019-03-26T03:30:45.597Z,0
2019-03-26T03:31:45.524Z,0
2019-03-26T03:32:45.592Z,0
2019-03-26T03:33:45.593Z,0
2019-03-26T03:34:45.591Z,0
2019-03-26T03:35:52.654Z,0
2019-03-26T03:36:45.598Z,0
2019-03-26T03:37:45.518Z,0
2019-03-26T03:38:45.597Z,0
2019-03-26T03:39:45.596Z,0
2019-03-26T03:40:45.651Z,0
2019-03-26T03:41:45.526Z,0
2019-03-26T03:42:45.610Z,0
2019-03-26T03:43:45.618Z,0
2019-03-26T03:44:45.709Z,0
2019-03-26T03:45:45.558Z,0
2019-03-26T03:46:45.603Z,0
2019-03-26T03:47:45.607Z,0
2019-03-26T03:48:45.603Z,0
2019-03-26T03:49:45.602Z,0
2019-03-26T03:50:45.533Z,0
2019-03-26T03:51:45.601Z,0
2019-03-26T03:52:45.567Z,0
2019-03-26T03:53:45.543Z,0
2019-03-26T03:54:45.550Z,0
2019-03-26T03:55:45.494Z,0
2019-03-26T03:56:45.548Z,0
2019-03-26T03:57:45.550Z,0
2019-03-26T03:58:45.615Z,0
2019-03-26T03:59:45.700Z,0
2019-03-26T04:00:45.551Z,0
2019-03-26T04:01:45.506Z,0
2019-03-26T04:02:45.685Z,0
2019-03-26T04:03:45.572Z,0
2019-03-26T04:04:45.594Z,0
2019-03-26T04:05:45.608Z,0
2019-03-26T04:06:45.570Z,0
2019-03-26T04:07:45.528Z,0
2019-03-26T04:08:45.595Z,0
2019-03-26T04:09:45.537Z,0
2019-03-26T04:10:45.537Z,0
2019-03-26T04:11:45.540Z,0
2019-03-26T04:12:45.616Z,0
2019-03-26T04:13:45.614Z,0
2019-03-26T04:14:45.551Z,0
2019-03-26T04:15:45.607Z,0
2019-03-26T04:16:45.672Z,0
2019-03-26T04:17:45.548Z,0
2019-03-26T04:18:45.617Z,0
2019-03-26T04:19:45.541Z,0
2019-03-26T04:20:45.622Z,0
2019-03-26T04:21:45.620Z,0
2019-03-26T04:22:45.558Z,0
2019-03-26T04:23:45.621Z,0
2019-03-26T04:24:45.555Z,0
2019-03-26T04:25:45.568Z,0
2019-03-26T04:26:45.632Z,0
2019-03-26T04:27:45.559Z,0
2019-03-26T04:28:45.620Z,0
2019-03-26T04:29:45.621Z,0
2019-03-26T04:30:45.567Z,0
2019-03-26T04:31:45.526Z,0
2019-03-26T04:32:45.508Z,0
2019-03-26T04:33:45.604Z,0
2019-03-26T04:34:45.537Z,0
2019-03-26T04:35:45.613Z,0
2019-03-26T04:36:45.518Z,0
2019-03-26T04:37:45.569Z,0
2019-03-26T04:38:45.613Z,0
2019-03-26T04:39:45.572Z,0
2019-03-26T04:40:45.525Z,0
2019-03-26T04:41:45.638Z,0
2019-03-26T04:42:45.710Z,0
2019-03-26T04:43:45.569Z,0
2019-03-26T04:44:45.575Z,0
2019-03-26T04:45:45.569Z,0
2019-03-26T04:46:45.644Z,0
2019-03-26T04:47:45.579Z,0
2019-03-26T04:48:45.640Z,0
2019-03-26T04:49:45.641Z,0
2019-03-26T04:50:45.572Z,0
2019-03-26T04:51:45.574Z,0
2019-03-26T04:52:45.656Z,0
2019-03-26T04:53:45.646Z,0
2019-03-26T04:54:45.539Z,0
2019-03-26T04:55:45.649Z,0
2019-03-26T04:56:45.584Z,0
2019-03-26T04:57:45.656Z,0
2019-03-26T04:58:45.589Z,0
2019-03-26T04:59:45.598Z,0
2019-03-26T05:00:45.715Z,0
2019-03-26T05:01:45.648Z,0
2019-03-26T05:02:45.571Z,0
2019-03-26T05:03:45.650Z,0
2019-03-26T05:04:45.647Z,0
2019-03-26T05:05:45.579Z,0
2019-03-26T05:06:45.644Z,0
2019-03-26T05:07:45.573Z,0
2019-03-26T05:08:45.647Z,0
2019-03-26T05:09:45.588Z,5
2019-03-26T05:10:45.582Z,5
2019-03-26T05:11:45.527Z,5
2019-03-26T05:12:45.526Z,5
2019-03-26T05:13:45.615Z,5
2019-03-26T05:14:45.540Z,5
2019-03-26T05:15:45.653Z,5
2019-03-26T05:16:45.533Z,5
2019-03-26T05:17:45.564Z,5
2019-03-26T05:18:45.651Z,11
2019-03-26T05:19:45.692Z,11
2019-03-26T05:20:45.553Z,11
2019-03-26T05:21:45.683Z,11
2019-03-26T05:22:45.612Z,11
2019-03-26T05:23:45.597Z,11
2019-03-26T05:24:45.747Z,11
2019-03-26T05:25:45.617Z,16
2019-03-26T05:26:45.930Z,16
2019-03-26T05:27:45.986Z,16
2019-03-26T05:28:45.568Z,16
2019-03-26T05:29:45.673Z,22
2019-03-26T05:30:45.616Z,22
2019-03-26T05:31:45.616Z,22
2019-03-26T05:32:45.698Z,22
2019-03-26T05:33:45.574Z,16
2019-03-26T05:34:45.674Z,16
2019-03-26T05:35:45.622Z,16
2019-03-26T05:36:51.303Z,16
2019-03-26T05:37:45.615Z,22
2019-03-26T05:38:45.679Z,22
2019-03-26T05:39:45.677Z,22
2019-03-26T05:40:45.671Z,22
2019-03-26T05:41:45.640Z,22
2019-03-26T05:42:45.613Z,22
2019-03-26T05:43:45.566Z,22
2019-03-26T05:44:45.549Z,28
2019-03-26T05:45:45.563Z,33
2019-03-26T05:46:45.569Z,33
2019-03-26T05:47:45.498Z,33
2019-03-26T05:48:45.529Z,39
2019-03-26T05:49:45.505Z,45
2019-03-26T05:50:45.560Z,56
2019-03-26T05:51:45.608Z,61
2019-03-26T05:52:45.682Z,67
2019-03-26T05:53:45.676Z,61
2019-03-26T05:54:45.677Z,61
2019-03-26T05:55:45.589Z,61
2019-03-26T05:56:45.645Z,56
2019-03-26T05:57:45.609Z,56
2019-03-26T05:58:45.591Z,56
2019-03-26T05:59:45.681Z,50
2019-03-26T06:00:45.583Z,61
2019-03-26T06:01:45.698Z,67
2019-03-26T06:02:45.638Z,67
2019-03-26T06:03:45.705Z,67
2019-03-26T06:04:45.624Z,67
2019-03-26T06:05:45.703Z,67
2019-03-26T06:06:45.705Z,73
2019-03-26T06:07:45.701Z,78
2019-03-26T06:08:45.706Z,90
2019-03-26T06:09:45.629Z,106
2019-03-26T06:10:45.661Z,118
2019-03-26T06:11:45.645Z,112
2019-03-26T06:12:45.599Z,106
2019-03-26T06:13:45.580Z,112
2019-03-26T06:14:45.622Z,118
2019-03-26T06:15:45.653Z,118
2019-03-26T06:16:45.642Z,129
2019-03-26T06:17:45.618Z,129
2019-03-26T06:18:45.637Z,146
2019-03-26T06:19:45.621Z,146
2019-03-26T06:20:45.564Z,157
2019-03-26T06:21:45.665Z,174
2019-03-26T06:22:45.698Z,196
2019-03-26T06:23:45.623Z,208
2019-03-26T06:24:45.697Z,225
2019-03-26T06:25:45.625Z,230
2019-03-26T06:26:45.658Z,230
2019-03-26T06:27:45.664Z,236
2019-03-26T06:28:45.600Z,253
2019-03-26T06:29:45.637Z,270
2019-03-26T06:30:45.635Z,275
2019-03-26T06:31:45.648Z,275
2019-03-26T06:32:45.643Z,275
2019-03-26T06:33:45.659Z,275
2019-03-26T06:34:45.648Z,270
2019-03-26T06:35:45.730Z,258
2019-03-26T06:36:45.715Z,253
2019-03-26T06:37:45.719Z,253
2019-03-26T06:38:45.677Z,253
2019-03-26T06:39:45.731Z,247
2019-03-26T06:40:45.652Z,241
2019-03-26T06:41:45.657Z,241
2019-03-26T06:42:45.710Z,241
2019-03-26T06:43:45.709Z,253
2019-03-26T06:44:45.641Z,270
2019-03-26T06:45:45.622Z,298
2019-03-26T06:46:45.716Z,337
2019-03-26T06:47:45.667Z,348
2019-03-26T06:48:45.650Z,348
2019-03-26T06:49:45.664Z,343
2019-03-26T06:50:45.645Z,348
2019-03-26T06:51:45.743Z,354
2019-03-26T06:52:45.730Z,371
2019-03-26T06:53:45.737Z,371
2019-03-26T06:54:45.629Z,354
2019-03-26T06:55:45.771Z,354
2019-03-26T06:56:45.743Z,376
2019-03-26T06:57:45.735Z,393
2019-03-26T06:58:45.661Z,405
2019-03-26T06:59:45.738Z,416
2019-03-26T07:00:45.752Z,393
2019-03-26T07:01:45.746Z,371
2019-03-26T07:02:45.733Z,388
2019-03-26T07:03:45.666Z,405
2019-03-26T07:04:45.667Z,393
2019-03-26T07:05:45.733Z,388
2019-03-26T07:06:45.683Z,393
2019-03-26T07:07:45.735Z,393
2019-03-26T07:08:45.705Z,393
2019-03-26T07:09:45.742Z,393
2019-03-26T07:10:45.742Z,405
2019-03-26T07:11:45.747Z,421
2019-03-26T07:12:45.751Z,433
2019-03-26T07:13:45.741Z,450
2019-03-26T07:14:45.761Z,466
2019-03-26T07:15:45.675Z,466
2019-03-26T07:16:45.839Z,472
2019-03-26T07:17:45.652Z,483
2019-03-26T07:18:45.757Z,472
2019-03-26T07:19:45.677Z,461
2019-03-26T07:20:45.674Z,483
2019-03-26T07:21:49.785Z,500
2019-03-26T07:22:45.670Z,523
2019-03-26T07:23:45.673Z,523
2019-03-26T07:24:45.746Z,511
2019-03-26T07:25:45.636Z,517
2019-03-26T07:26:45.653Z,528
2019-03-26T07:27:45.742Z,556
2019-03-26T07:28:45.673Z,613
2019-03-26T07:29:45.750Z,669
2019-03-26T07:30:45.741Z,725
2019-03-26T07:31:45.607Z,815
2019-03-26T07:32:45.643Z,961
2019-03-26T07:33:45.676Z,1046
2019-03-26T07:34:45.610Z,1040
2019-03-26T07:35:45.707Z,1012
2019-03-26T07:36:45.708Z,995
2019-03-26T07:37:46.077Z,967
2019-03-26T07:38:45.694Z,939
2019-03-26T07:39:45.691Z,945
2019-03-26T07:40:45.624Z,973
2019-03-26T07:41:45.732Z,1023
2019-03-26T07:42:45.702Z,1046
2019-03-26T07:43:45.757Z,1063
2019-03-26T07:44:45.733Z,1051
2019-03-26T07:45:45.762Z,984
2019-03-26T07:46:45.769Z,916
2019-03-26T07:47:45.698Z,871
2019-03-26T07:48:45.764Z,832
2019-03-26T07:49:45.770Z,832
2019-03-26T07:50:45.774Z,900
2019-03-26T07:51:45.769Z,1001
2019-03-26T07:52:45.766Z,1074
2019-03-26T07:53:45.770Z,1113
2019-03-26T07:54:45.770Z,1046
2019-03-26T07:55:45.717Z,1029
2019-03-26T07:56:45.716Z,1051
2019-03-26T07:57:45.705Z,1108
2019-03-26T07:58:45.776Z,1080
2019-03-26T07:59:45.710Z,1035
2019-03-26T08:00:45.784Z,978
2019-03-26T08:01:45.787Z,956
2019-03-26T08:02:45.775Z,950
2019-03-26T08:03:45.780Z,956
2019-03-26T08:04:45.711Z,967
2019-03-26T08:05:45.780Z,1006
2019-03-26T08:06:45.790Z,1029
2019-03-26T08:07:57.733Z,1040
2019-03-26T08:08:45.782Z,1192
2019-03-26T08:09:45.733Z,1389
2019-03-26T08:10:45.717Z,1411
2019-03-26T08:11:45.712Z,1344
2019-03-26T08:12:45.731Z,1310
2019-03-26T08:13:45.773Z,1327
2019-03-26T08:14:45.709Z,1338
2019-03-26T08:15:45.714Z,1282
2019-03-26T08:16:45.778Z,1209
2019-03-26T08:17:45.712Z,2941
2019-03-26T08:18:45.687Z,3076
2019-03-26T08:19:45.781Z,2829
2019-03-26T08:20:45.735Z,2165
2019-03-26T08:21:45.781Z,2632
2019-03-26T08:22:45.716Z,1777
2019-03-26T08:23:45.777Z,1676
2019-03-26T08:24:45.663Z,3161
2019-03-26T08:25:45.788Z,2891
2019-03-26T08:26:45.700Z,2632
2019-03-26T08:27:45.789Z,1996
2019-03-26T08:28:45.722Z,2711
2019-03-26T08:29:45.736Z,1676
2019-03-26T08:30:45.717Z,2576
2019-03-26T08:31:45.714Z,2115
2019-03-26T08:32:45.788Z,2081
2019-03-26T08:33:45.722Z,2115
2019-03-26T08:34:46.803Z,1653
2019-03-26T08:35:45.717Z,1535
2019-03-26T08:36:45.794Z,1704
2019-03-26T08:37:45.723Z,1620
2019-03-26T08:38:45.768Z,2244
2019-03-26T08:39:45.734Z,2047
2019-03-26T08:40:45.705Z,2300
2019-03-26T08:41:45.799Z,2199
2019-03-26T08:42:45.736Z,2002
2019-03-26T08:43:45.804Z,1935
2019-03-26T08:44:45.814Z,2514
2019-03-26T08:45:45.807Z,3538
2019-03-26T08:46:46.354Z,3138
2019-03-26T08:47:45.810Z,2227
2019-03-26T08:48:45.752Z,2126
2019-03-26T08:49:45.762Z,2238
2019-03-26T08:50:45.770Z,2868
2019-03-26T08:51:45.742Z,1895
2019-03-26T08:52:45.808Z,1636
2019-03-26T08:53:45.807Z,1361
2019-03-26T08:54:45.748Z,1310
2019-03-26T08:55:45.753Z,1299
2019-03-26T08:56:45.752Z,1333
2019-03-26T08:57:45.748Z,1389
2019-03-26T08:58:45.814Z,1378
2019-03-26T08:59:45.819Z,1428
2019-03-26T09:00:45.827Z,1631
2019-03-26T09:01:45.819Z,1918
2019-03-26T09:02:45.760Z,2345
2019-03-26T09:03:45.828Z,1867
2019-03-26T09:04:45.757Z,1434
2019-03-26T09:05:45.754Z,1350
2019-03-26T09:06:45.764Z,1338
2019-03-26T09:07:45.824Z,1321
2019-03-26T09:08:45.826Z,1243
2019-03-26T09:09:45.757Z,1164
2019-03-26T09:10:51.632Z,1181
2019-03-26T09:11:45.834Z,1248
2019-03-26T09:12:45.818Z,1316
2019-03-26T09:13:45.706Z,1265
2019-03-26T09:14:45.732Z,1327
2019-03-26T09:15:45.823Z,1440
2019-03-26T09:16:45.822Z,1468
2019-03-26T09:17:45.758Z,1608
2019-03-26T09:18:45.751Z,1839
2019-03-26T09:19:45.821Z,3808
2019-03-26T09:20:45.709Z,2835
2019-03-26T09:21:45.837Z,4123
2019-03-26T09:22:45.800Z,3768
2019-03-26T09:23:45.742Z,1794
2019-03-26T09:24:45.791Z,2075
2019-03-26T09:25:45.741Z,2649
2019-03-26T09:26:45.756Z,3622
2019-03-26T09:27:45.758Z,3538
2019-03-26T09:28:47.853Z,2975
2019-03-26T09:29:45.710Z,3566
2019-03-26T09:30:45.797Z,1822
2019-03-26T09:31:45.832Z,3425
2019-03-26T09:32:45.772Z,3391
2019-03-26T09:33:45.782Z,3380
2019-03-26T09:34:45.773Z,3369
2019-03-26T09:35:45.845Z,3397
2019-03-26T09:36:45.843Z,3431
2019-03-26T09:37:45.864Z,3510
2019-03-26T09:38:45.858Z,3510
2019-03-26T09:39:45.788Z,3555
2019-03-26T09:40:45.846Z,3616
2019-03-26T09:41:45.780Z,3661
2019-03-26T09:42:45.856Z,3701
2019-03-26T09:43:45.851Z,3853
2019-03-26T09:44:45.856Z,3780
2019-03-26T09:45:45.783Z,3847
2019-03-26T09:46:45.853Z,2655
2019-03-26T09:47:45.855Z,1445
2019-03-26T09:48:45.846Z,4381
2019-03-26T09:49:45.865Z,1344
2019-03-26T09:50:45.784Z,1192
2019-03-26T09:51:45.856Z,1676
2019-03-26T09:52:45.847Z,4331
2019-03-26T09:53:45.850Z,3915
2019-03-26T09:54:45.869Z,2311
2019-03-26T09:55:45.866Z,2221
2019-03-26T09:56:45.856Z,3701
2019-03-26T09:57:45.814Z,3498
2019-03-26T09:58:45.819Z,4573
2019-03-26T09:59:45.858Z,1985
2019-03-26T10:00:45.992Z,1811
2019-03-26T10:01:45.777Z,1783
2019-03-26T10:02:45.866Z,1614
2019-03-26T10:03:45.803Z,1518
2019-03-26T10:04:45.864Z,1411
2019-03-26T10:05:45.875Z,1423
2019-03-26T10:06:45.868Z,1395
2019-03-26T10:07:45.843Z,1338
2019-03-26T10:08:52.195Z,1423
2019-03-26T10:09:45.869Z,2334
2019-03-26T10:10:45.811Z,1175
2019-03-26T10:11:45.809Z,916
2019-03-26T10:12:45.879Z,720
2019-03-26T10:13:45.785Z,568
2019-03-26T10:14:45.826Z,511
2019-03-26T10:15:45.835Z,511
2019-03-26T10:16:45.873Z,517
2019-03-26T10:17:45.791Z,562
2019-03-26T10:18:45.863Z,680
2019-03-26T10:19:45.861Z,815
2019-03-26T10:20:45.799Z,888
2019-03-26T10:21:45.797Z,866
2019-03-26T10:22:45.697Z,815
2019-03-26T10:23:45.802Z,776
2019-03-26T10:24:45.745Z,759
2019-03-26T10:25:45.697Z,708
2019-03-26T10:26:45.718Z,663
2019-03-26T10:27:45.768Z,590
2019-03-26T10:28:45.822Z,523
2019-03-26T10:29:45.807Z,483
2019-03-26T10:30:45.807Z,466
2019-03-26T10:31:45.813Z,455
2019-03-26T10:32:45.832Z,506
2019-03-26T10:33:45.892Z,562
2019-03-26T10:34:45.888Z,573
2019-03-26T10:35:45.885Z,562
2019-03-26T10:36:45.819Z,540
2019-03-26T10:37:45.893Z,534
2019-03-26T10:38:45.825Z,534
2019-03-26T10:39:45.893Z,511
2019-03-26T10:40:45.822Z,495
2019-03-26T10:41:45.897Z,506
2019-03-26T10:42:45.933Z,534
2019-03-26T10:43:45.902Z,545
2019-03-26T10:44:45.894Z,551
2019-03-26T10:45:45.828Z,601
2019-03-26T10:46:45.896Z,680
2019-03-26T10:47:45.931Z,731
2019-03-26T10:48:45.897Z,714
2019-03-26T10:49:45.978Z,697
2019-03-26T10:50:45.796Z,731
2019-03-26T10:51:45.896Z,731
2019-03-26T10:52:45.901Z,686
2019-03-26T10:53:45.838Z,675
2019-03-26T10:54:45.901Z,686
2019-03-26T10:55:45.840Z,748
2019-03-26T10:56:45.842Z,753
2019-03-26T10:57:45.900Z,697
2019-03-26T10:58:45.910Z,691
2019-03-26T10:59:45.845Z,697
2019-03-26T11:00:45.907Z,725
2019-03-26T11:01:45.871Z,787
2019-03-26T11:02:45.832Z,815
2019-03-26T11:03:45.830Z,793
2019-03-26T11:04:45.888Z,731
2019-03-26T11:05:45.843Z,703
2019-03-26T11:06:45.893Z,697
2019-03-26T11:07:45.803Z,663
2019-03-26T11:08:45.768Z,646
2019-03-26T11:09:45.891Z,652
2019-03-26T11:10:45.832Z,669
2019-03-26T11:11:45.808Z,708
2019-03-26T11:12:45.795Z,770
2019-03-26T11:13:45.850Z,905
2019-03-26T11:14:45.796Z,1096
2019-03-26T11:15:45.873Z,1153
2019-03-26T11:16:45.778Z,1170
2019-03-26T11:17:45.869Z,1265
2019-03-26T11:18:45.893Z,1338
2019-03-26T11:19:46.569Z,1316
2019-03-26T11:20:45.869Z,1305
2019-03-26T11:21:45.824Z,1299
2019-03-26T11:22:45.855Z,1327
2019-03-26T11:23:45.921Z,1372
2019-03-26T11:24:45.928Z,1395
2019-03-26T11:25:45.924Z,1378
2019-03-26T11:26:45.855Z,1316
2019-03-26T11:27:45.857Z,1226
2019-03-26T11:28:45.867Z,1158
2019-03-26T11:29:45.932Z,1051
2019-03-26T11:30:45.929Z,961
2019-03-26T11:31:45.865Z,877
2019-03-26T11:32:45.859Z,810
2019-03-26T11:33:45.926Z,810
2019-03-26T11:34:45.873Z,866
2019-03-26T11:35:45.937Z,883
2019-03-26T11:36:45.932Z,956
2019-03-26T11:37:45.861Z,905
2019-03-26T11:38:45.934Z,838
2019-03-26T11:39:45.932Z,770
2019-03-26T11:40:45.867Z,742
2019-03-26T11:41:45.933Z,798
2019-03-26T11:42:45.936Z,798
2019-03-26T11:43:45.939Z,759
2019-03-26T11:44:45.867Z,748
2019-03-26T11:45:45.939Z,731
2019-03-26T11:46:45.943Z,708
2019-03-26T11:47:45.936Z,663
2019-03-26T11:48:45.938Z,669
2019-03-26T11:49:45.945Z,641
2019-03-26T11:50:45.902Z,601
2019-03-26T11:51:45.948Z,624
2019-03-26T11:52:45.877Z,635
2019-03-26T11:53:45.941Z,630
2019-03-26T11:54:45.889Z,630
2019-03-26T11:55:45.951Z,663
2019-03-26T11:56:45.957Z,669
2019-03-26T11:57:45.877Z,618
2019-03-26T11:58:45.880Z,596
2019-03-26T11:59:45.951Z,601
2019-03-26T12:00:45.890Z,607
2019-03-26T12:01:45.884Z,607
2019-03-26T12:02:45.895Z,613
2019-03-26T12:03:45.909Z,596
2019-03-26T12:04:45.965Z,556
2019-03-26T12:05:45.950Z,517
2019-03-26T12:06:45.882Z,523
2019-03-26T12:07:45.894Z,568
2019-03-26T12:08:45.900Z,613
2019-03-26T12:09:46.885Z,579
2019-03-26T12:10:45.955Z,523
2019-03-26T12:11:45.954Z,511
2019-03-26T12:12:45.902Z,540
2019-03-26T12:13:45.895Z,568
2019-03-26T12:14:45.892Z,573
2019-03-26T12:15:45.959Z,568
2019-03-26T12:16:45.887Z,556
2019-03-26T12:17:45.958Z,528
2019-03-26T12:18:45.890Z,517
2019-03-26T12:19:45.960Z,495
2019-03-26T12:20:45.894Z,489
2019-03-26T12:21:45.962Z,568
2019-03-26T12:22:45.866Z,641
2019-03-26T12:23:45.937Z,691
2019-03-26T12:24:45.834Z,804
2019-03-26T12:25:45.906Z,933
2019-03-26T12:26:45.942Z,928
2019-03-26T12:27:45.956Z,990
2019-03-26T12:28:45.893Z,1080
2019-03-26T12:29:45.932Z,1074
2019-03-26T12:30:45.858Z,956
2019-03-26T12:31:45.959Z,922
2019-03-26T12:32:45.971Z,883
2019-03-26T12:33:45.976Z,883
2019-03-26T12:34:45.917Z,877
2019-03-26T12:35:45.972Z,815
2019-03-26T12:36:45.900Z,776
2019-03-26T12:37:45.976Z,742
2019-03-26T12:38:45.980Z,787
2019-03-26T12:39:58.578Z,866
2019-03-26T12:40:45.968Z,894
2019-03-26T12:41:45.910Z,821
2019-03-26T12:42:45.972Z,714
2019-03-26T12:43:45.845Z,675
2019-03-26T12:44:45.968Z,624
2019-03-26T12:45:45.964Z,635
2019-03-26T12:46:45.966Z,669
2019-03-26T12:47:45.959Z,675
2019-03-26T12:48:45.875Z,646
2019-03-26T12:49:45.849Z,630
2019-03-26T12:50:45.958Z,641
2019-03-26T12:51:45.980Z,663
2019-03-26T12:52:46.007Z,714
2019-03-26T12:53:45.919Z,748
2019-03-26T12:54:45.920Z,776
2019-03-26T12:55:45.917Z,793
2019-03-26T12:56:45.996Z,753
2019-03-26T12:57:45.916Z,714
2019-03-26T12:58:45.989Z,725
2019-03-26T12:59:46.002Z,838
2019-03-26T13:00:46.060Z,950
2019-03-26T13:01:45.998Z,1006
2019-03-26T13:02:45.993Z,1006
2019-03-26T13:03:45.992Z,900
2019-03-26T13:04:45.937Z,838
2019-03-26T13:05:45.994Z,781
2019-03-26T13:06:46.007Z,748
2019-03-26T13:07:46.003Z,736
2019-03-26T13:08:45.931Z,669
2019-03-26T13:09:45.996Z,635
2019-03-26T13:10:53.363Z,551
2019-03-26T13:11:45.998Z,540
2019-03-26T13:12:45.997Z,545
2019-03-26T13:13:46.077Z,556
2019-03-26T13:14:46.001Z,596
2019-03-26T13:15:45.878Z,534
2019-03-26T13:16:45.928Z,472
2019-03-26T13:17:45.936Z,472
2019-03-26T13:18:45.928Z,545
2019-03-26T13:19:45.993Z,613
2019-03-26T13:20:45.909Z,663
2019-03-26T13:21:45.970Z,618
2019-03-26T13:22:45.893Z,590
2019-03-26T13:23:45.941Z,607
2019-03-26T13:24:46.011Z,562
2019-03-26T13:25:45.941Z,495
2019-03-26T13:26:48.848Z,523
2019-03-26T13:27:45.940Z,540
2019-03-26T13:28:46.018Z,523
2019-03-26T13:29:46.017Z,495
2019-03-26T13:30:45.906Z,472
2019-03-26T13:31:46.008Z,455
2019-03-26T13:32:45.947Z,489
2019-03-26T13:33:45.943Z,528
2019-03-26T13:34:46.022Z,523
2019-03-26T13:35:46.015Z,466
2019-03-26T13:36:46.018Z,421
2019-03-26T13:37:45.945Z,416
2019-03-26T13:38:46.012Z,421
2019-03-26T13:39:46.029Z,393
2019-03-26T13:40:45.951Z,399
2019-03-26T13:41:46.021Z,450
2019-03-26T13:42:46.019Z,489
2019-03-26T13:43:45.956Z,483
2019-03-26T13:44:45.952Z,427
2019-03-26T13:45:46.035Z,444
2019-03-26T13:46:46.027Z,596
2019-03-26T13:47:45.958Z,590
2019-03-26T13:48:45.951Z,540
2019-03-26T13:49:46.024Z,461
2019-03-26T13:50:45.969Z,472
2019-03-26T13:52:46.026Z,585
2019-03-26T13:53:45.975Z,601
2019-03-26T13:54:46.024Z,601
2019-03-26T13:55:45.968Z,725
2019-03-26T13:56:46.033Z,871
2019-03-26T13:57:46.060Z,776
2019-03-26T13:58:45.968Z,686
2019-03-26T13:59:48.908Z,714
2019-03-26T14:00:46.029Z,810
2019-03-26T14:01:46.027Z,877
2019-03-26T14:02:46.030Z,826
2019-03-26T14:03:46.048Z,787
2019-03-26T14:04:45.967Z,787
2019-03-26T14:05:46.036Z,855